createdAt,value
2023-05-09T00:00:04.157Z,422.17
2023-05-09T00:02:54.660Z,412.27
2023-05-09T00:05:42.681Z,419.33
2023-05-09T00:08:32.229Z,422.58
2023-05-09T00:11:20.122Z,417.98
2023-05-09T00:14:08.651Z,400.50
2023-05-09T00:16:57.520Z,393.50
2023-05-09T00:19:45.930Z,444.50
2023-05-09T00:22:33.847Z,399.70
2023-05-09T00:25:23.101Z,414.95
2023-05-09T00:28:11.476Z,443.63
2023-05-09T00:30:59.504Z,416.38
2023-05-09T00:33:47.668Z,410.02
2023-05-09T00:36:35.597Z,444.35
2023-05-09T00:39:23.825Z,416.92
2023-05-09T00:42:13.237Z,405.67
2023-05-09T00:45:01.877Z,426.00
2023-05-09T00:47:49.968Z,396.77
2023-05-09T00:50:38.079Z,413.30
2023-05-09T00:53:27.019Z,436.38
2023-05-09T00:56:16.442Z,430.95
2023-05-09T00:59:06.621Z,440.52
2023-05-09T01:01:54.568Z,404.42
2023-05-09T01:04:44.252Z,425.55
2023-05-09T01:07:38.325Z,413.38
2023-05-09T01:10:35.933Z,416.33
2023-05-09T01:13:28.238Z,420.42
2023-05-09T01:16:24.775Z,415.17
2023-05-09T01:19:37.474Z,415.70
2023-05-09T01:22:30.958Z,432.88
2023-05-09T01:25:42.002Z,433.15
2023-05-09T01:28:45.546Z,428.25
2023-05-09T01:31:39.407Z,425.38
2023-05-09T01:34:29.535Z,422.02
2023-05-09T01:37:20.733Z,429.13
2023-05-09T01:40:13.157Z,416.50
2023-05-09T01:43:04.729Z,425.27
2023-05-09T01:45:54.654Z,412.42
2023-05-09T01:48:45.540Z,401.10
2023-05-09T01:51:35.609Z,407.85
2023-05-09T01:54:26.529Z,423.52
2023-05-09T01:57:15.868Z,386.15
2023-05-09T02:00:07.870Z,403.52
2023-05-09T02:03:02.266Z,413.92
2023-05-09T02:05:53.143Z,422.10
2023-05-09T02:08:42.331Z,401.85
2023-05-09T02:11:30.224Z,413.80
2023-05-09T02:14:18.876Z,419.77
2023-05-09T02:17:09.435Z,398.17
2023-05-09T02:19:57.640Z,400.90
2023-05-09T02:22:48.102Z,407.45
2023-05-09T02:25:36.108Z,410.17
2023-05-09T02:28:26.782Z,417.42
2023-05-09T02:31:17.468Z,416.90
2023-05-09T02:34:06.519Z,400.40
2023-05-09T02:36:56.322Z,410.13
2023-05-09T02:39:46.153Z,385.80
2023-05-09T02:42:34.052Z,359.08
2023-05-09T02:45:22.388Z,388.30
2023-05-09T02:48:10.350Z,398.77
2023-05-09T02:50:58.831Z,400.48
2023-05-09T02:53:46.878Z,381.88
2023-05-09T02:56:36.262Z,374.90
2023-05-09T02:59:24.422Z,369.35
2023-05-09T03:02:12.553Z,393.75
2023-05-09T03:05:01.363Z,349.77
2023-05-09T03:07:50.528Z,395.17
2023-05-09T03:10:39.041Z,397.30
2023-05-09T03:13:28.260Z,386.55
2023-05-09T03:16:19.546Z,374.98
2023-05-09T03:19:08.337Z,398.13
2023-05-09T03:21:56.481Z,375.35
2023-05-09T03:24:44.895Z,372.33
2023-05-09T03:27:32.915Z,380.48
2023-05-09T03:30:23.576Z,381.42
2023-05-09T03:33:12.567Z,380.00
2023-05-09T03:36:00.692Z,386.75
2023-05-09T03:38:49.111Z,390.05
2023-05-09T03:41:38.227Z,376.27
2023-05-09T03:44:27.819Z,372.27
2023-05-09T03:47:17.314Z,373.48
2023-05-09T03:50:07.106Z,380.80
2023-05-09T03:52:56.948Z,356.77
2023-05-09T03:55:45.412Z,371.55
2023-05-09T03:58:34.886Z,388.35
2023-05-09T04:01:23.225Z,379.17
2023-05-09T04:04:12.673Z,371.20
2023-05-09T04:07:00.841Z,386.02
2023-05-09T04:09:49.462Z,385.67
2023-05-09T04:12:38.031Z,393.95
2023-05-09T04:15:26.273Z,368.52
2023-05-09T04:18:15.340Z,398.30
2023-05-09T04:21:05.161Z,372.27
2023-05-09T04:23:53.605Z,387.05
2023-05-09T04:26:48.754Z,399.77
2023-05-09T04:29:41.851Z,392.48
2023-05-09T04:32:31.211Z,397.48
2023-05-09T04:35:20.862Z,395.13
2023-05-09T04:38:12.910Z,399.15
2023-05-09T04:41:01.811Z,395.58
2023-05-09T04:43:49.918Z,386.55
2023-05-09T04:46:38.160Z,414.17
2023-05-09T04:49:26.536Z,433.77
2023-05-09T04:52:14.441Z,388.08
2023-05-09T04:55:04.241Z,399.02
2023-05-09T04:57:57.566Z,403.40
2023-05-09T05:00:46.392Z,408.50
2023-05-09T05:03:35.900Z,402.63
2023-05-09T05:06:24.167Z,404.05
2023-05-09T05:09:12.995Z,404.05
2023-05-09T05:12:04.174Z,394.00
2023-05-09T05:14:53.708Z,412.00
2023-05-09T05:17:43.971Z,430.40
2023-05-09T05:20:32.493Z,407.98
2023-05-09T05:23:20.779Z,434.25
2023-05-09T05:26:10.969Z,424.73
2023-05-09T05:29:01.200Z,415.33
2023-05-09T05:31:49.280Z,421.75
2023-05-09T05:34:39.413Z,411.00
2023-05-09T05:37:27.965Z,422.80
2023-05-09T05:40:16.873Z,420.55
2023-05-09T05:43:07.664Z,431.83
2023-05-09T05:45:59.780Z,421.00
2023-05-09T05:48:49.492Z,440.80
2023-05-09T05:51:37.743Z,405.08
2023-05-09T05:54:27.634Z,404.92
2023-05-09T05:57:15.975Z,419.45
2023-05-09T06:00:07.311Z,437.02
2023-05-09T06:03:02.872Z,409.20
2023-05-09T06:06:02.865Z,432.90
2023-05-09T06:08:51.060Z,431.08
2023-05-09T06:11:39.687Z,412.85
2023-05-09T06:14:27.624Z,429.50
2023-05-09T06:20:05.770Z,393.52
2023-05-09T06:22:53.651Z,431.52
2023-05-09T06:25:41.750Z,426.17
2023-05-09T06:28:29.640Z,418.80
2023-05-09T06:31:17.708Z,433.33
2023-05-09T06:34:06.086Z,428.05
2023-05-09T06:36:55.526Z,402.45
2023-05-09T06:39:43.459Z,451.02
2023-05-09T06:42:33.743Z,443.52
2023-05-09T06:45:21.918Z,431.52
2023-05-09T06:48:09.963Z,421.00
2023-05-09T06:50:57.868Z,429.33
2023-05-09T06:53:47.382Z,400.52
2023-05-09T06:56:35.674Z,442.27
2023-05-09T06:59:23.627Z,435.85
2023-05-09T07:02:12.209Z,437.77
2023-05-09T07:05:00.254Z,447.83
2023-05-09T07:07:48.543Z,454.45
2023-05-09T07:10:38.582Z,451.15
2023-05-09T07:13:26.900Z,459.48
2023-05-09T07:16:14.884Z,452.00
2023-05-09T07:19:04.087Z,450.80
2023-05-09T07:21:51.989Z,457.00
2023-05-09T07:24:39.886Z,464.40
2023-05-09T07:27:29.468Z,464.23
2023-05-09T07:30:17.691Z,440.10
2023-05-09T07:33:06.710Z,464.67
2023-05-09T07:35:54.736Z,449.58
2023-05-09T07:38:42.760Z,463.00
2023-05-09T07:41:30.677Z,463.42
2023-05-09T07:44:19.914Z,487.95
2023-05-09T07:47:09.016Z,485.85
2023-05-09T07:49:57.040Z,475.92
2023-05-09T07:52:46.609Z,457.15
2023-05-09T07:55:34.530Z,476.23
2023-05-09T07:58:23.007Z,463.27
2023-05-09T08:01:12.229Z,429.35
2023-05-09T08:04:00.523Z,434.48
2023-05-09T08:06:50.035Z,463.63
2023-05-09T08:09:37.989Z,463.90
2023-05-09T08:12:25.997Z,455.60
2023-05-09T08:15:15.095Z,464.58
2023-05-09T08:18:06.633Z,489.35
2023-05-09T08:20:54.603Z,455.38
2023-05-09T08:23:42.684Z,474.85
2023-05-09T08:26:30.662Z,468.05
2023-05-09T08:29:18.955Z,483.05
2023-05-09T08:32:06.998Z,480.25
2023-05-09T08:34:56.503Z,491.88
2023-05-09T08:37:44.445Z,466.08
2023-05-09T08:40:37.036Z,468.17
2023-05-09T08:43:25.510Z,451.63
2023-05-09T08:46:15.248Z,438.70
2023-05-09T08:49:06.115Z,464.88
2023-05-09T08:51:55.722Z,460.48
2023-05-09T08:54:44.007Z,403.00
2023-05-09T08:57:33.583Z,433.77
2023-05-09T09:00:22.595Z,446.92
2023-05-09T09:03:11.462Z,438.10
2023-05-09T09:06:00.379Z,454.52
2023-05-09T09:08:51.909Z,455.13
2023-05-09T09:11:41.850Z,444.85
2023-05-09T09:14:33.323Z,467.17
2023-05-09T09:17:27.926Z,469.90
2023-05-09T09:20:17.651Z,457.08
2023-05-09T09:23:10.952Z,429.17
2023-05-09T09:26:02.019Z,423.50
2023-05-09T09:28:50.036Z,439.25
2023-05-09T09:31:37.982Z,436.73
2023-05-09T09:34:26.991Z,449.40
2023-05-09T09:37:23.076Z,456.42
2023-05-09T09:40:12.863Z,426.83
2023-05-09T09:43:02.294Z,450.80
2023-05-09T09:45:51.740Z,481.15
2023-05-09T09:48:40.439Z,466.73
2023-05-09T09:51:30.110Z,466.33
2023-05-09T09:54:18.066Z,447.75
2023-05-09T09:57:06.490Z,434.25
2023-05-09T10:00:00.484Z,438.25
2023-05-09T10:02:50.340Z,433.90
2023-05-09T10:05:40.865Z,432.27
2023-05-09T10:08:28.786Z,420.73
2023-05-09T10:11:17.066Z,403.92
2023-05-09T10:14:05.041Z,401.80
2023-05-09T10:16:57.688Z,391.80
2023-05-09T10:19:47.527Z,379.85
2023-05-09T10:22:37.282Z,359.25
2023-05-09T10:25:33.792Z,362.90
2023-05-09T10:28:28.765Z,349.08
2023-05-09T10:31:22.047Z,341.17
2023-05-09T10:34:13.007Z,352.27
2023-05-09T10:37:01.522Z,355.83
2023-05-09T10:39:53.347Z,355.67
2023-05-09T10:42:41.569Z,365.25
2023-05-09T10:45:30.313Z,354.35
2023-05-09T10:48:19.362Z,358.92
2023-05-09T10:51:09.423Z,353.23
2023-05-09T10:53:57.924Z,324.52
2023-05-09T10:56:47.521Z,358.73
2023-05-09T10:59:38.084Z,353.55
2023-05-09T11:02:29.469Z,339.25
2023-05-09T11:05:18.912Z,348.38
2023-05-09T11:08:21.968Z,333.80
2023-05-09T11:11:25.551Z,301.98
2023-05-09T11:14:30.133Z,317.17
2023-05-09T11:17:29.628Z,324.33
2023-05-09T11:20:17.608Z,326.33
2023-05-09T11:23:06.981Z,301.27
2023-05-09T11:26:06.548Z,311.63
2023-05-09T11:28:56.894Z,317.27
2023-05-09T11:32:06.058Z,313.23
2023-05-09T11:35:06.471Z,313.17
2023-05-09T11:38:01.682Z,293.60
2023-05-09T11:40:49.612Z,313.63
2023-05-09T11:43:39.848Z,302.70
2023-05-09T11:46:28.082Z,298.25
2023-05-09T11:49:17.225Z,319.38
2023-05-09T11:52:06.319Z,333.83
2023-05-09T11:54:54.391Z,330.42
2023-05-09T11:57:44.857Z,323.33
2023-05-09T12:00:34.233Z,341.02
2023-05-09T12:03:22.329Z,344.45
2023-05-09T12:06:10.650Z,370.95
2023-05-09T12:08:58.966Z,358.95
2023-05-09T12:11:50.830Z,342.55
2023-05-09T12:14:39.492Z,346.35
2023-05-09T12:17:29.351Z,355.70
2023-05-09T12:20:17.594Z,338.00
2023-05-09T12:23:05.936Z,347.98
2023-05-09T12:25:55.298Z,349.92
2023-05-09T12:28:44.565Z,347.27
2023-05-09T12:31:32.999Z,339.02
2023-05-09T12:34:23.417Z,321.25
2023-05-09T12:37:15.979Z,321.92
2023-05-09T12:40:08.358Z,340.35
2023-05-09T12:43:00.789Z,325.83
2023-05-09T12:45:53.614Z,328.67
2023-05-09T12:48:42.068Z,340.08
2023-05-09T12:51:31.464Z,322.50
2023-05-09T12:54:22.377Z,324.38
2023-05-09T12:57:22.655Z,338.58
2023-05-09T13:00:12.110Z,307.35
2023-05-09T13:03:00.237Z,324.23
2023-05-09T13:05:55.556Z,311.88
2023-05-09T13:08:44.825Z,311.35
2023-05-09T13:11:32.796Z,332.42
2023-05-09T13:14:23.969Z,315.63
2023-05-09T13:17:12.348Z,303.77
2023-05-09T13:20:00.332Z,326.48
2023-05-09T13:23:24.673Z,306.52
2023-05-09T13:26:14.087Z,316.55
2023-05-09T13:29:02.015Z,308.67
2023-05-09T13:31:50.195Z,304.27
2023-05-09T13:34:38.107Z,315.52
2023-05-09T13:37:27.816Z,294.15
2023-05-09T13:40:16.040Z,295.45
2023-05-09T13:43:05.831Z,298.23
2023-05-09T13:45:53.836Z,305.98
2023-05-09T13:48:42.134Z,308.00
2023-05-09T13:51:30.070Z,299.83
2023-05-09T13:54:20.384Z,321.00
2023-05-09T13:57:08.544Z,347.25
2023-05-09T13:59:58.489Z,367.80
2023-05-09T14:02:46.395Z,329.50
2023-05-09T14:05:35.333Z,351.73
2023-05-09T14:08:23.515Z,355.90
2023-05-09T14:11:12.021Z,342.85
2023-05-09T14:13:59.980Z,343.83
2023-05-09T14:16:50.220Z,319.63
2023-05-09T14:19:38.173Z,327.42
2023-05-09T14:22:26.466Z,315.85
2023-05-09T14:25:14.389Z,316.65
2023-05-09T14:28:02.483Z,313.35
2023-05-09T14:30:50.518Z,282.17
2023-05-09T14:33:40.693Z,295.90
2023-05-09T14:36:29.027Z,277.15
2023-05-09T14:39:17.045Z,294.42
2023-05-09T14:42:05.823Z,271.25
2023-05-09T14:44:54.014Z,287.23
2023-05-09T14:47:42.142Z,272.00
2023-05-09T14:50:32.385Z,283.20
2023-05-09T14:53:20.665Z,282.45
2023-05-09T14:56:09.639Z,296.48
2023-05-09T14:58:57.586Z,327.23
2023-05-09T15:01:46.688Z,347.33
2023-05-09T15:04:34.680Z,338.02
2023-05-09T15:07:24.699Z,330.38
2023-05-09T15:10:12.993Z,319.60
2023-05-09T15:13:02.733Z,327.95
2023-05-09T15:15:53.008Z,314.40
2023-05-09T15:18:45.255Z,349.63
2023-05-09T15:21:34.315Z,348.73
2023-05-09T15:24:23.794Z,358.23
2023-05-09T15:27:11.829Z,359.88
2023-05-09T15:30:00.705Z,368.85
2023-05-09T15:32:48.652Z,387.67
2023-05-09T15:35:37.175Z,391.25
2023-05-09T15:38:25.075Z,424.23
2023-05-09T15:41:14.728Z,385.98
2023-05-09T15:44:02.640Z,409.17
2023-05-09T15:46:50.890Z,441.77
2023-05-09T15:49:38.849Z,451.27
2023-05-09T15:52:28.008Z,477.30
2023-05-09T15:55:16.093Z,466.80
2023-05-09T15:58:05.904Z,475.75
2023-05-09T16:00:54.166Z,489.98
2023-05-09T16:03:43.355Z,478.17
2023-05-09T16:06:32.848Z,493.63
2023-05-09T16:09:20.915Z,487.40
2023-05-09T16:12:09.296Z,454.40
2023-05-09T16:14:58.825Z,464.02
2023-05-09T16:17:46.917Z,516.25
2023-05-09T16:20:35.296Z,489.95
2023-05-09T16:23:24.358Z,484.52
2023-05-09T16:26:12.464Z,484.67
2023-05-09T16:29:01.762Z,474.83
2023-05-09T16:31:51.341Z,463.40
2023-05-09T16:34:39.320Z,459.38
2023-05-09T16:37:29.132Z,462.38
2023-05-09T16:40:17.272Z,476.13
2023-05-09T16:43:05.744Z,496.50
2023-05-09T16:45:53.705Z,487.30
2023-05-09T16:48:43.302Z,501.23
2023-05-09T16:51:31.739Z,519.35
2023-05-09T16:54:19.895Z,499.63
2023-05-09T16:57:08.338Z,534.55
2023-05-09T16:59:56.561Z,525.58
2023-05-09T17:02:44.597Z,522.88
2023-05-09T17:05:34.124Z,519.17
2023-05-09T17:08:22.425Z,527.88
2023-05-09T17:11:10.957Z,568.33
2023-05-09T17:13:58.936Z,538.72
2023-05-09T17:16:47.548Z,543.30
2023-05-09T17:19:36.678Z,556.97
2023-05-09T17:22:27.030Z,526.22
2023-05-09T17:25:14.945Z,537.75
2023-05-09T17:28:03.404Z,555.80
2023-05-09T17:30:51.326Z,537.63
2023-05-09T17:33:40.106Z,550.22
2023-05-09T17:36:28.037Z,530.60
2023-05-09T17:39:17.845Z,531.40
2023-05-09T17:42:06.822Z,524.45
2023-05-09T17:44:54.877Z,528.33
2023-05-09T17:47:43.218Z,516.58
2023-05-09T17:50:31.410Z,502.15
2023-05-09T17:53:19.777Z,502.75
2023-05-09T17:56:09.160Z,513.15
2023-05-09T17:58:57.313Z,490.27
2023-05-09T18:01:45.301Z,490.65
2023-05-09T18:04:34.524Z,497.20
2023-05-09T18:07:22.801Z,486.75
2023-05-09T18:10:11.803Z,494.75
2023-05-09T18:13:01.090Z,498.08
2023-05-09T18:15:49.515Z,465.42
2023-05-09T18:18:37.486Z,493.48
2023-05-09T18:21:25.721Z,485.88
2023-05-09T18:24:16.207Z,513.67
2023-05-09T18:27:05.298Z,497.65
2023-05-09T18:29:54.797Z,495.48
2023-05-09T18:32:43.110Z,487.65
2023-05-09T18:35:31.567Z,489.33
2023-05-09T18:38:19.670Z,475.63
2023-05-09T18:41:10.264Z,468.33
2023-05-09T18:43:59.061Z,476.05
2023-05-09T18:46:48.342Z,454.42
2023-05-09T18:49:36.514Z,449.13
2023-05-09T18:52:24.430Z,462.33
2023-05-09T18:55:13.339Z,439.17
2023-05-09T18:58:01.300Z,477.50
2023-05-09T19:00:49.470Z,447.60
2023-05-09T19:03:43.349Z,456.25
2023-05-09T19:06:32.554Z,445.13
2023-05-09T19:09:20.528Z,456.58
2023-05-09T19:12:09.696Z,438.70
2023-05-09T19:14:57.603Z,448.52
2023-05-09T19:17:45.826Z,459.60
2023-05-09T19:20:35.177Z,455.23
2023-05-09T19:23:23.760Z,456.50
2023-05-09T19:26:11.680Z,467.83
2023-05-09T19:29:01.782Z,449.67
2023-05-09T19:31:51.019Z,461.70
2023-05-09T19:34:38.928Z,454.98
2023-05-09T19:37:28.488Z,448.77
2023-05-09T19:40:16.636Z,432.52
2023-05-09T19:43:04.895Z,434.90
2023-05-09T19:45:52.896Z,443.98
2023-05-09T19:48:41.336Z,462.63
2023-05-09T19:51:29.549Z,454.20
2023-05-09T19:54:18.856Z,467.35
2023-05-09T19:57:06.845Z,449.15
2023-05-09T19:59:55.731Z,463.70
2023-05-09T20:02:43.763Z,437.83
2023-05-09T20:05:32.025Z,437.42
2023-05-09T20:08:19.946Z,457.90
2023-05-09T20:11:09.642Z,439.00
2023-05-09T20:13:57.638Z,432.73
2023-05-09T20:16:46.406Z,445.73
2023-05-09T20:19:34.418Z,439.23
2023-05-09T20:22:22.560Z,427.92
2023-05-09T20:25:13.028Z,421.30
2023-05-09T20:28:02.759Z,447.70
2023-05-09T20:30:50.873Z,443.15
2023-05-09T20:33:40.194Z,434.90
2023-05-09T20:36:28.451Z,450.88
2023-05-09T20:39:17.862Z,421.95
2023-05-09T20:42:06.533Z,433.60
2023-05-09T20:44:56.497Z,428.27
2023-05-09T20:47:44.428Z,427.50
2023-05-09T20:50:32.681Z,437.55
2023-05-09T20:53:20.616Z,438.10
2023-05-09T20:56:08.554Z,446.05
2023-05-09T20:58:59.806Z,423.40
2023-05-09T21:01:49.324Z,450.45
2023-05-09T21:04:37.307Z,417.73
2023-05-09T21:07:25.539Z,431.80
2023-05-09T21:10:13.779Z,442.98
2023-05-09T21:13:02.148Z,445.95
2023-05-09T21:15:50.805Z,430.10
2023-05-09T21:18:40.415Z,441.35
2023-05-09T21:21:28.445Z,434.75
2023-05-09T21:24:16.605Z,429.90
2023-05-09T21:27:04.815Z,460.05
2023-05-09T21:29:52.995Z,458.13
2023-05-09T21:32:40.933Z,458.58
2023-05-09T21:35:30.918Z,443.95
2023-05-09T21:38:18.835Z,426.27
2023-05-09T21:41:07.144Z,429.67
2023-05-09T21:43:55.037Z,442.58
2023-05-09T21:46:46.288Z,448.35
2023-05-09T21:49:34.698Z,464.40
2023-05-09T21:52:24.040Z,451.33
2023-05-09T21:55:12.016Z,437.73
2023-05-09T21:58:00.228Z,435.63
2023-05-09T22:00:48.154Z,425.83
2023-05-09T22:03:36.847Z,445.35
2023-05-09T22:06:24.882Z,457.77
2023-05-09T22:09:14.337Z,419.15
2023-05-09T22:12:02.302Z,403.60
2023-05-09T22:14:56.325Z,429.88
2023-05-09T22:17:44.916Z,415.25
2023-05-09T22:20:33.307Z,423.50
2023-05-09T22:23:21.283Z,415.73
2023-05-09T22:26:10.900Z,440.58
2023-05-09T22:28:58.808Z,421.85
2023-05-09T22:31:46.920Z,441.00
2023-05-09T22:34:34.982Z,415.50
2023-05-09T22:37:23.221Z,443.67
2023-05-09T22:40:11.657Z,445.00
2023-05-09T22:43:02.015Z,441.70
2023-05-09T22:45:50.034Z,450.48
2023-05-09T22:48:38.121Z,462.05
2023-05-09T22:51:26.152Z,431.63
2023-05-09T22:54:14.211Z,460.73
2023-05-09T22:57:02.111Z,450.23
2023-05-09T22:59:51.769Z,453.13
2023-05-09T23:02:39.858Z,420.38
2023-05-09T23:05:28.078Z,430.13
2023-05-09T23:08:16.070Z,439.73
2023-05-09T23:11:05.368Z,445.67
2023-05-09T23:13:53.300Z,450.38
2023-05-09T23:16:42.844Z,431.25
2023-05-09T23:19:30.767Z,462.50
2023-05-09T23:22:18.904Z,447.58
2023-05-09T23:25:08.401Z,444.00
2023-05-09T23:27:56.400Z,424.42
2023-05-09T23:30:44.339Z,434.52
2023-05-09T23:33:33.975Z,418.90
2023-05-09T23:36:21.968Z,418.10
2023-05-09T23:39:10.206Z,415.25
2023-05-09T23:41:58.432Z,423.27
2023-05-09T23:44:46.612Z,431.73
2023-05-09T23:47:34.577Z,411.50
2023-05-09T23:50:24.460Z,389.73
2023-05-09T23:53:12.336Z,414.10
2023-05-09T23:56:00.453Z,416.02
2023-05-09T23:58:48.388Z,402.33
